Tiempo atmosférico en la estación meteorológica de Palma Aeropuerto, Illes Balears (8 m.)



Fecha
DESCASC
Temp. máxima en grados centígrados (hora)
DESCASC
Temp. mínima en grados centígrados (hora)
DESCASC
Temp. media en grados centígrados
DESCASC
Racha de viento máxima en m/sg (hora)
DESCASC
Velocidad máxima media en intervalos de 10 minutos(hora)
DESCASC
Precipitaciones diarias en mm
DESCASC
Precipitaciones de 00:00 a 06:00 en mm
DESCASC
Precipitaciones de 06:00 a 12:00 en mm
DESCASC
Precipitaciones de 12:00 a 18:00 en mm
DESCASC
Precipitaciones de 18:00 a 24:00 en mm
DESCASC

Gráficas

Temp. máximas Temp. mínimas Temp. medias Precipitaciones Rachas de viento máximas Velocidades máximas media en intervalos de 10 minutos

Datos horarios

Fecha y hora oficial Temperatura (ºC) Velocidad del viento (km/h) Dirección del viento Racha (km/h) Dirección de racha Precipitación (mm) Presión (hPa) Tendencia (hPa) Humedad (%)
2019-06-19 23:00:00 20.3 3 Oeste -- -- 0 1012.7 0.5 93
2019-06-19 22:00:00 21.2 7 Oeste 15 Sudoeste 0 1012.3 0.2 87
2019-06-19 21:00:00 22.4 10 Sudoeste 26 Sudoeste 0 1012.3 -0.2 83
2019-06-19 20:00:00 23.6 18 Sudoeste 30 Sudoeste 0 1012.2 -0.8 77
2019-06-19 19:00:00 24.4 18 Sudoeste 26 Sudoeste 0 1012.1 -1.3 73
2019-06-19 18:00:00 25.1 15 Sur 28 Sudoeste 0 1012.5 -1 67
2019-06-19 17:00:00 25.6 21 Sudoeste 32 Sur 0 1013 -0.8 65
2019-06-19 16:00:00 25.5 23 Sudoeste 32 Sudoeste 0 1013.4 -0.7 64
2019-06-19 15:00:00 25.9 22 Sudoeste 33 Sudoeste 0 1013.5 -0.8 62
2019-06-19 14:00:00 25.6 19 Sudoeste 28 Sudoeste 0 1013.8 0 61
2019-06-19 13:00:00 25.4 21 Sur 33 Sudoeste 0 1014.1 0.8 67
2019-06-19 12:00:00 25 24 Sudoeste 39 Sudoeste 0 1014.3 0.6 70
2019-06-19 11:00:00 24.8 24 Sudoeste 32 Sudoeste 0 1013.8 0.1 64
2019-06-19 10:00:00 25.2 8 Oeste 17 Oeste 0 1013.3 -0.1 51
2019-06-19 09:00:00 23.3 3 Oeste -- -- 0 1013.7 0.1 59
2019-06-19 08:00:00 18.3 0 Calma 8 Nordeste 0 1013.7 0.4 63
2019-06-19 07:00:00 13.4 6 Nordeste 9 Nordeste 0 1013.4 0.2 80
2019-06-19 06:00:00 13.1 2 Este -- -- 0 1013.6 0 79
2019-06-19 05:00:00 13.5 2 Nordeste 5 Nordeste 0 1013.3 -0.4 80
2019-06-19 04:00:00 13.9 5 Nordeste 9 Este 0 1013.2 -0.9 80
2019-06-19 03:00:00 15 4 Este -- -- -- 1013.6 -1 76
2019-06-19 02:00:00 15.4 3 Norte 8 Este 0 1013.7 -0.7 77
2019-06-19 01:00:00 16.4 4 Este -- -- 0 1014.1 0 76
2019-06-19 00:00:00 17.6 5 Nordeste 8 Nordeste 0 1014.6 0.4 76
2019-06-18 23:00:00 18.9 4 Este 5 Este 0 1014.4 0.2 73
2019-06-18 22:00:00 21.3 4 Noroeste 9 Oeste 0 1014.1 0 68
2019-06-18 21:00:00 23.4 7 Oeste 22 Sudoeste 0 1014.2 0 65
2019-06-18 20:00:00 24.5 18 Sudoeste 30 Sudoeste 0 1014.2 -0.4 58
2019-06-18 19:00:00 25.8 21 Sudoeste 28 Sudoeste 0 1014.1 -0.9 47
2019-06-18 18:00:00 26.2 22 Sudoeste 33 Sudoeste 0 1014.2 -0.9 45
2019-06-18 17:00:00 26.4 24 Sudoeste 33 Sudoeste 0 1014.6 -0.9 49
2019-06-18 16:00:00 26.9 27 Sudoeste 33 Sudoeste 0 1015 -0.7 47
2019-06-18 15:00:00 27.2 26 Sudoeste 35 Sudoeste 0 1015.1 -0.7 43
2019-06-18 14:00:00 27.4 27 Sudoeste 33 Sudoeste 0 1015.5 -0.3 37
2019-06-18 13:00:00 27.2 22 Sudoeste 32 Oeste 0 1015.7 -0.3 33
2019-06-18 12:00:00 27.4 18 Sudoeste 24 Sudoeste 0 1015.8 -0.3 34
2019-06-18 11:00:00 27.4 12 Sudoeste 17 Sudoeste 0 1015.8 0.2 29
2019-06-18 10:00:00 25.9 8 Sudoeste 13 Sudoeste 0 1016 0.6 35
2019-06-18 09:00:00 23.3 0 Calma 8 Norte 0 1016.1 1 48
2019-06-18 08:00:00 19.1 2 Este 8 Nordeste 0 1015.6 0.5 63
2019-06-18 07:00:00 14.2 4 Nordeste 8 Nordeste 0 1015.4 -0.1 86
2019-06-18 06:00:00 13 4 Nordeste 8 Este 0 1015.1 -0.6 92
2019-06-18 05:00:00 13.4 6 Este 8 Este 0 1015.1 -1 90
2019-06-18 04:00:00 14.4 4 Nordeste 8 Nordeste 0 1015.5 -1 90
2019-06-18 03:00:00 15.2 6 Este -- -- -- 1015.7 -0.9 84
2019-06-18 02:00:00 16.4 3 Nordeste 5 Este 0 1016.1 -0.2 83
2019-06-18 01:00:00 16.9 5 Nordeste 9 Nordeste 0 1016.5 0.6 82
2019-06-18 00:00:00 18.1 7 Nordeste 9 Nordeste 0 1016.6 0.9 78
2019-06-17 23:00:00 19.6 -- -- -- -- 0 1016.3 0.8 78
2019-06-17 22:00:00 21.4 6 Oeste 21 Sudoeste 0 1015.9 0.5 71
2019-06-17 21:00:00 22.9 15 Sudoeste 24 Sudoeste 0 1015.7 0.1 62
2019-06-17 20:00:00 24.3 18 Sudoeste 28 Sudoeste 0 1015.5 -0.7 51
2019-06-17 19:00:00 25.5 15 Sudoeste 22 Sudoeste 0 1015.4 -1.2 44
2019-06-17 18:00:00 25.6 16 Sudoeste 28 Sur 0 1015.6 -1 45
2019-06-17 17:00:00 26.2 21 Sudoeste 33 Sudoeste 0 1016.2 -0.5 40
2019-06-17 16:00:00 26.4 25 Sudoeste 39 Sudoeste 0 1016.6 -0.3 39
2019-06-17 15:00:00 26.8 28 Sudoeste 37 Sur 0 1016.6 -0.3 40
2019-06-17 14:00:00 26.7 26 Sudoeste 35 Sudoeste 0 1016.7 0.1 45
2019-06-17 13:00:00 26.6 22 Sudoeste 32 Sudoeste 0 1016.9 0.4 43
2019-06-17 12:00:00 26.1 22 Sudoeste 32 Sudoeste 0 1016.9 0.3 46
2019-06-17 11:00:00 25.3 17 Sudoeste 22 Sudoeste 0 1016.6 0.1 50
2019-06-17 10:00:00 26.1 4 Norte 11 Nordeste 0 1016.5 0 43
2019-06-17 09:00:00 22.8 7 Este 13 Nordeste 0 1016.6 -0.2 60
2019-06-17 08:00:00 19 4 Nordeste 9 Norte 0 1016.5 -0.5 78
2019-06-17 07:00:00 15.4 6 Nordeste 9 Este 0 1016.5 -0.5 95
2019-06-17 06:00:00 15.1 6 Nordeste 8 Nordeste 0 1016.8 -0.4 97
2019-06-17 05:00:00 16.3 5 Este 8 Este 0 1017 -0.5 94
2019-06-17 04:00:00 16.9 7 Este 8 Nordeste 0 1017 -0.6 92
2019-06-17 03:00:00 17.6 3 Norte -- -- -- 1017.2 -0.1 91
2019-06-17 02:00:00 19.2 3 Este 18 Sudoeste 0 1017.5 -0.1 82
2019-06-17 01:00:00 20.6 9 Sudoeste 21 Sudoeste 0 1017.6 0.1 79
2019-06-17 00:00:00 19.9 3 Sudoeste 13 Sudoeste 0 1017.3 0.1 83
2019-06-16 23:00:00 20.4 6 Oeste 18 Sur 0 1017.6 0.3 82
2019-06-16 22:00:00 21.3 13 Sudoeste 26 Sudoeste 0 1017.5 0.1 77
2019-06-16 21:00:00 21.9 12 Sudoeste 22 Sudoeste 0 1017.2 -0.1 71
2019-06-16 20:00:00 22.4 14 Sudoeste 24 Sudoeste 0 1017.3 -0.8 69
2019-06-16 19:00:00 22.6 19 Sudoeste 32 Sudoeste 0 1017.4 -1.1 68
2019-06-16 18:00:00 24.3 15 Sudoeste 26 Sudoeste 0 1017.3 -1.3 59
2019-06-16 17:00:00 24.2 23 Sudoeste 42 Sudoeste 0 1018.1 -0.9 61
2019-06-16 16:00:00 25 28 Sudoeste 37 Sudoeste 0 1018.5 -0.8 58
2019-06-16 15:00:00 25.5 23 Sudoeste 35 Sudoeste 0 1018.6 -0.5 56
2019-06-16 14:00:00 27.6 20 Este 35 Este 0 1019 -0.1 36
2019-06-16 13:00:00 26.6 26 Este 42 Este 0 1019.3 0.4 38
2019-06-16 12:00:00 25.6 30 Nordeste 42 Este 0 1019.1 0.3 44
2019-06-16 11:00:00 24.1 30 Nordeste 45 Nordeste 0 1019.1 0.4 48
2019-06-16 10:00:00 22.6 31 Nordeste 46 Nordeste 0 1018.9 0.1 55
2019-06-16 09:00:00 21.7 28 Nordeste 45 Nordeste 0 1018.8 0.1 58
2019-06-16 08:00:00 19.9 24 Nordeste 33 Nordeste 0 1018.7 0.2 67
2019-06-16 07:00:00 18.1 17 Nordeste 28 Nordeste 0 1018.8 0 79
2019-06-16 06:00:00 17.7 14 Este 26 Nordeste 0 1018.7 -0.4 83
2019-06-16 05:00:00 18 16 Nordeste 26 Este 0 1018.5 -0.6 83
2019-06-16 04:00:00 18.3 16 Nordeste 28 Nordeste 0 1018.8 -0.2 82
2019-06-16 03:00:00 18.7 18 Nordeste 33 Este 0 1019.1 0.4 78
2019-06-16 02:00:00 19.2 21 Nordeste 35 Este 0 1019.1 1 77
2019-06-16 01:00:00 20 21 Nordeste 33 Nordeste 0 1019 1.7 79
2019-06-16 00:00:00 20.3 15 Nordeste 30 Este 0 1018.7 2.6 83
2019-06-15 23:00:00 20.8 18 Este 28 Este 0 1018.1 2.8 82
2019-06-15 22:00:00 22 17 Este 28 Nordeste 0 1017.3 2.6 75
2019-06-15 21:00:00 24.5 18 Nordeste 32 Este 0 1016.1 1.4 63
2019-06-15 20:00:00 27 23 Este 33 Nordeste 0 1015.3 0.5 54
2019-06-15 19:00:00 29.2 20 Este 28 Nordeste 0 1014.7 -0.3 46
2019-06-15 18:00:00 29.5 12 Sudoeste 22 Sudoeste 0 1014.7 -0.7 42
2019-06-15 17:00:00 28 11 Sudoeste 22 Sur 0 1014.8 -0.5 51
2019-06-15 16:00:00 26.2 15 Sudoeste 28 Sudoeste 0 1015 -0.6 59
2019-06-15 15:00:00 25.4 22 Sudoeste 32 Sudoeste 0 1015.4 -0.2 65
2019-06-15 14:00:00 26.6 18 Sudoeste 30 Sudoeste 0 1015.3 -0.2 58
2019-06-15 13:00:00 25.8 18 Sur 26 Sudoeste 0 1015.6 -0.1 57
2019-06-15 12:00:00 24.6 17 Sudoeste 30 Sudoeste 0 1015.6 0.2 61
2019-06-15 11:00:00 23.7 13 Sudoeste 26 Sudoeste 0 1015.5 0.7 66
2019-06-15 10:00:00 22.5 16 Sudoeste 26 Sudoeste 0 1015.7 1.2 71
2019-06-15 09:00:00 21.4 18 Sudoeste 24 Sudoeste 0 1015.4 0.9 76
2019-06-15 08:00:00 21.1 17 Sudoeste 30 Sudoeste 0 1014.8 0.7 74
2019-06-15 07:00:00 20.7 19 Sudoeste 28 Sudoeste 0 1014.5 0.4 76
2019-06-15 06:00:00 20.5 20 Sudoeste 30 Sudoeste 0 1014.5 0.1 74
2019-06-15 05:00:00 20.3 17 Sudoeste 22 Sudoeste 0 1014.1 -0.4 79
2019-06-15 04:00:00 18.2 12 Sudoeste 17 Sudoeste 0 1014.1 -0.5 93
2019-06-15 03:00:00 16.6 2 Nordeste 8 Este 0 1014.4 -0.4 93
2019-06-15 02:00:00 18 4 Nordeste 13 Sudoeste 0 1014.5 -0.1 86
2019-06-15 01:00:00 20.4 10 Sudoeste 18 Sudoeste 0 1014.6 0.5 82
2019-06-15 00:00:00 21.1 14 Sudoeste 18 Sudoeste 0 1014.8 1.4 78
2019-06-14 23:00:00 21.1 13 Sudoeste 22 Sudoeste 0 1014.6 1.7 85
2019-06-14 22:00:00 21.4 16 Sudoeste 28 Sudoeste 0 1014.1 2.1 84
2019-06-14 21:00:00 22 20 Sudoeste 26 Sur 0 1013.4 1.6 81
2019-06-14 20:00:00 22.8 15 Sur 28 Sudoeste 0 1012.9 1.1 64
2019-06-14 19:00:00 24.2 22 Sudoeste 33 Sudoeste 0 1012 0.8 56
2019-06-14 18:00:00 24.4 24 Sur 45 Sudoeste 0 1011.8 1.3 51
2019-06-14 17:00:00 24.9 33 Sudoeste 50 Sudoeste 0 1011.8 1.4 49
2019-06-14 16:00:00 25.2 42 Sudoeste 50 Sudoeste 0 1011.2 0.8 50
2019-06-14 15:00:00 24.8 39 Sudoeste 50 Sudoeste 0 1010.5 0.9 53
2019-06-14 14:00:00 24.4 24 Oeste 46 Sudoeste 0 1010.4 1.5 57
2019-06-14 13:00:00 23.5 36 Oeste 50 Sudoeste 0 1010.4 2.6 64
2019-06-14 12:00:00 22.1 29 Oeste 46 Sudoeste 0 1009.6 4.1 72
2019-06-14 11:00:00 21.7 33 Oeste 50 Sudoeste 0 1008.9 4 76
2019-06-14 10:00:00 22.1 37 Sudoeste 50 Sudoeste 0 1007.8 3.1 77
2019-06-14 09:00:00 22.9 11 Oeste 28 Sudoeste 0 1005.5 0.8 73
2019-06-14 08:00:00 22.5 16 Oeste 21 Oeste 0 1004.9 1 74
2019-06-14 07:00:00 21.2 6 Noroeste 11 Noroeste 0 1004.7 0.1 78
2019-06-14 06:00:00 21.2 10 Este 28 Nordeste 0 1004.7 -0.9 78
2019-06-14 05:00:00 21.4 19 Nordeste 28 Este 0 1003.9 -1.9 76
2019-06-14 04:00:00 21.6 17 Nordeste 30 Nordeste 0 1004.6 -2.6 72
2019-06-14 03:00:00 21.5 19 Nordeste 33 Nordeste 0 1005.6 -2.6 70
2019-06-14 02:00:00 21.5 24 Nordeste 39 Nordeste 0 1005.8 -3 72
2019-06-14 01:00:00 21.5 26 Nordeste 42 Nordeste 0 1007.2 -2.1 76
2019-06-14 00:00:00 21.4 27 Nordeste 39 Nordeste 0 1008.2 -0.3 77
2019-06-13 23:00:00 21.4 25 Nordeste 37 Nordeste 0 1008.8 0.5 76
2019-06-13 22:00:00 21.7 17 Nordeste 35 Nordeste 0 1009.3 1.3 72
2019-06-13 21:00:00 22.7 27 Nordeste 42 Nordeste 0 1008.5 0.1 66
2019-06-13 20:00:00 25 26 Nordeste 46 Este 0 1008.3 -0.7 58
2019-06-13 19:00:00 26.3 30 Nordeste 45 Nordeste 0 1008 -1.7 50
2019-06-13 18:00:00 27.3 31 Nordeste 48 Nordeste 0 1008.4 -2.1 40
2019-06-13 17:00:00 27.5 31 Nordeste 52 Nordeste 0 1009 -2.1 38
2019-06-13 16:00:00 27.7 30 Nordeste 46 Este 0 1009.7 -2.5 35
2019-06-13 15:00:00 28 27 Este 45 Este 0 1010.5 -2.1 33
2019-06-13 14:00:00 27.1 27 Nordeste 45 Nordeste 0 1011.1 -1.7 39
2019-06-13 13:00:00 26.2 27 Nordeste 41 Nordeste 0 1012.2 0.3 42
2019-06-13 12:00:00 24.5 28 Nordeste 46 Nordeste 0 1012.6 -0.2 45
2019-06-13 11:00:00 23.4 33 Nordeste 42 Nordeste 0 1012.8 -0.2 47
2019-06-13 10:00:00 21.8 33 Nordeste 45 Nordeste 0 1011.9 -1 56
2019-06-13 09:00:00 20.2 31 Nordeste 46 Nordeste 0 1012.8 -0.3 70
2019-06-13 08:00:00 18.4 6 Nordeste 18 Nordeste 0 1013 -0.1 71
2019-06-13 07:00:00 14.8 6 Este 15 Este 0 1012.9 -0.9 86
2019-06-13 06:00:00 16.1 8 Este 15 Nordeste 0 1013.1 -0.9 85
2019-06-13 05:00:00 14.3 4 Este 5 Nordeste 0 1013.1 -1.1 87
2019-06-13 04:00:00 14.4 4 Este 8 Nordeste 0 1013.8 -0.6 86
2019-06-13 03:00:00 15.1 4 Este 5 Este 0 1014 -0.7 83
2019-06-13 02:00:00 16.6 6 Sudeste 17 Nordeste 0 1014.2 -0.7 79
2019-06-13 01:00:00 17 11 Nordeste 17 Nordeste 0 1014.4 -0.2 79
2019-06-13 00:00:00 17.5 12 Nordeste 17 Nordeste 0 1014.7 0.6 75
2019-06-12 23:00:00 17.9 12 Nordeste 17 Este 0 1014.9 1.2 70
2019-06-12 22:00:00 19.1 12 Nordeste 21 Este 0 1014.6 1.2 64
2019-06-12 21:00:00 21.1 17 Este 24 Este 0 1014.1 0.4 55
2019-06-12 20:00:00 22.9 13 Nordeste 22 Este 0 1013.7 -0.2 50
2019-06-12 19:00:00 24.3 10 Sudoeste 21 Sudoeste 0 1013.4 -0.8 50
2019-06-12 18:00:00 23.9 18 Oeste 30 Oeste 0 1013.7 -0.6 53
2019-06-12 17:00:00 24 19 Sudoeste 32 Sudoeste 0 1013.9 -0.8 51
2019-06-12 16:00:00 24.1 9 Este 28 Sudoeste 0 1014.2 -0.3 46
2019-06-12 15:00:00 24 10 Sudoeste 28 Oeste 0 1014.3 -0.3 47
2019-06-12 14:00:00 22.7 12 Este 21 Este 0 1014.7 -0.1 48
2019-06-12 13:00:00 22.8 7 Nordeste 22 Nordeste 0 1014.5 -0.5 45
2019-06-12 12:00:00 22.5 6 Nordeste 30 Nordeste 0 1014.6 -0.2 45
2019-06-12 11:00:00 20.4 13 Este 21 Este 0 1014.8 0.8 55
2019-06-12 10:00:00 19.2 14 Nordeste 22 Nordeste 0 1015 1.5 62
2019-06-12 09:00:00 18.4 16 Nordeste 22 Nordeste 0 1014.8 1.8 69
2019-06-12 08:00:00 18 15 Nordeste 24 Nordeste 0 1014 1.4 71
2019-06-12 07:00:00 17.1 12 Nordeste 21 Nordeste 0 1013.5 0.9 74
2019-06-12 06:00:00 17.1 12 Nordeste 30 Este 0 1013 0.2 72
2019-06-12 05:00:00 16.9 15 Nordeste 24 Nordeste 0 1012.6 -0.5 72
2019-06-12 04:00:00 16.7 15 Nordeste 32 Nordeste 0 1012.6 -1 73
2019-06-12 03:00:00 16.6 22 Nordeste 35 Nordeste 0 1012.8 -0.4 74
2019-06-12 02:00:00 16.8 21 Nordeste 33 Nordeste 0 1013.1 0.2 75
2019-06-12 01:00:00 16.8 27 Nordeste 39 Nordeste 0 1013.6 1.8 77
2019-06-12 00:00:00 17.1 27 Este 41 Este 0 1013.2 2.7 77
2019-06-11 23:00:00 18.5 20 Nordeste 30 Nordeste 0 1012.9 3.1 74
2019-06-11 22:00:00 19.3 23 Nordeste 35 Este 0 1011.8 2.5 73
2019-06-11 21:00:00 20.7 18 Norte 32 Noroeste 0 1010.5 1.1 66
2019-06-11 20:00:00 22.7 18 Noroeste 26 Noroeste 0 1009.8 0.2 60
2019-06-11 19:00:00 23.6 15 Oeste 24 Sudoeste 0 1009.3 -0.5 58
2019-06-11 18:00:00 23.1 18 Sudoeste 30 Sudoeste 0 1009.4 -0.3 60
2019-06-11 17:00:00 23.7 22 Sudoeste 30 Sudoeste 0 1009.6 -0.2 59
2019-06-11 16:00:00 24.5 23 Sudoeste 37 Sudoeste 0 1009.8 -0.5 54
2019-06-11 15:00:00 24.2 24 Sudoeste 33 Sudoeste 0 1009.7 -0.5 57
2019-06-11 14:00:00 24.1 27 Sudoeste 39 Sudoeste 0 1009.8 -0.4 58
2019-06-11 13:00:00 24 19 Sur 33 Sudoeste 0 1010.3 0 55
2019-06-11 12:00:00 23.5 18 Sur 30 Sudoeste 0 1010.2 -0.2 58
2019-06-11 11:00:00 22.8 17 Sudoeste 30 Sudoeste 0 1010.2 -0.2 60
2019-06-11 10:00:00 21.8 10 Nordeste 22 Nordeste 0 1010.3 -0.2 63
2019-06-11 09:00:00 20.8 12 Este 18 Este 0 1010.4 -0.1 69
2019-06-11 08:00:00 19.1 11 Nordeste 15 Este 0 1010.4 -0.4 79
2019-06-11 07:00:00 15.9 2 Nordeste 8 Nordeste 0 1010.5 -0.8 88
2019-06-11 06:00:00 15.8 6 Norte 9 Norte 0 1010.5 -1.4 88
2019-06-11 05:00:00 16.6 0 Calma 5 Nordeste 0 1010.8 -1.8 83
2019-06-11 04:00:00 17.8 5 Nordeste 8 Sudeste 0 1011.3 -1.8 77
2019-06-11 03:00:00 19.7 5 Este 8 Sudeste 0 1011.9 -1.4 67
2019-06-11 02:00:00 19.3 2 Sur 11 Sudeste 0 1012.6 -0.7 65
2019-06-11 01:00:00 20.3 6 Sur 15 Sur 0 1013.1 0.4 62
2019-06-11 00:00:00 20.9 8 Sur 17 Sur 0 1013.3 0.9 62
2019-06-10 23:00:00 21.4 7 Sur 15 Sur 0 1013.3 1.4 63
2019-06-10 22:00:00 21.6 10 Sudoeste 21 Sudoeste 0 1012.7 1.2 68
2019-06-10 21:00:00 21.7 15 Sudoeste 24 Sudoeste 0 1012.4 1 73
2019-06-10 20:00:00 22.2 18 Sudoeste 28 Sudoeste 0 1011.9 0.4 73
2019-06-10 19:00:00 23 20 Sudoeste 32 Sudoeste 0 1011.5 -0.5 68
2019-06-10 18:00:00 24.4 23 Sur 33 Sur 0 1011.4 -0.5 63
2019-06-10 17:00:00 24.8 23 Sur 35 Sudoeste 0 1011.5 -0.7 58
2019-06-10 16:00:00 25 26 Sudoeste 39 Sudoeste 0 1012 -0.2 59
2019-06-10 15:00:00 24.9 28 Sudoeste 39 Sudoeste 0 1011.9 -0.5 59
2019-06-10 14:00:00 25.8 28 Sudoeste 42 Sudoeste 0 1012.2 -0.5 54
2019-06-10 13:00:00 27.2 8 Sudeste 35 Este 0 1012.2 -0.3 45
2019-06-10 12:00:00 26 26 Este 39 Este 0 1012.4 0.1 50
2019-06-10 11:00:00 25 27 Nordeste 41 Este 0 1012.7 1 54
2019-06-10 10:00:00 24.3 27 Este 48 Este 0 1012.5 1 54
2019-06-10 09:00:00 22.8 35 Este 52 Nordeste 0 1012.3 0.7 59
2019-06-10 08:00:00 20.9 24 Nordeste 35 Este 0 1011.7 0 68
2019-06-10 07:00:00 18 11 Nordeste 21 Nordeste 0 1011.5 -0.6 82
2019-06-10 06:00:00 16.1 4 Nordeste 11 Nordeste 0 1011.6 -0.5 96
2019-06-10 05:00:00 16.5 7 Este 13 Este 0 1011.7 -0.3 91
2019-06-10 04:00:00 16.6 5 Nordeste 9 Este 0 1012.1 -0.5 90
2019-06-10 03:00:00 17.9 6 Nordeste 8 Nordeste 0 1012.1 -0.2 88
2019-06-10 02:00:00 18.6 3 Este 5 Este 0 1012 -0.3 82
2019-06-10 01:00:00 19.4 5 Nordeste 8 Nordeste 0 1012.6 0.8 79
2019-06-10 00:00:00 20.6 5 Norte 9 Sur 0 1012.3 1 74
2019-06-09 23:00:00 22 8 Sur 13 Sur 0 1012.3 1.3 73
2019-06-09 22:00:00 22.5 8 Oeste 11 Oeste 0 1011.8 1.1 71
2019-06-09 21:00:00 23.7 4 Sur 17 Sur 0 1011.3 0.6 63
2019-06-09 20:00:00 24.5 12 Sudeste 18 Sur 0 1011 0.1 61
2019-06-09 19:00:00 25.5 15 Sudoeste 28 Sudoeste 0 1010.7 -0.7 56
2019-06-09 18:00:00 27.2 19 Sudoeste 30 Sudoeste 0 1010.7 -1 44
2019-06-09 17:00:00 28.5 15 Sudoeste 22 Sudoeste 0 1010.9 -1.4 41
2019-06-09 16:00:00 27.5 15 Sudoeste 26 Sudoeste 0 1011.4 -1.6 42
2019-06-09 15:00:00 28 18 Sudoeste 24 Sudoeste 0 1011.7 -1.3 42
2019-06-09 14:00:00 26.8 19 Sudoeste 30 Sudoeste 0 1012.3 -0.9 45
2019-06-09 13:00:00 25 23 Sudoeste 32 Sudoeste 0 1013 0 50
2019-06-09 12:00:00 24.3 23 Sudoeste 30 Sudoeste 0 1013 -0.6 55
2019-06-09 11:00:00 24 18 Sudoeste 30 Sudoeste 0 1013.2 -0.1 61
2019-06-09 10:00:00 24.9 4 Sudoeste 15 Sudeste 0 1013 -0.6 58
2019-06-09 09:00:00 23 7 Nordeste 13 Nordeste 0 1013.6 -0.5 61
2019-06-09 08:00:00 19.7 6 Nordeste 21 Este 0 1013.3 -0.7 72
2019-06-09 07:00:00 19 9 Nordeste 15 Este 0 1013.6 -0.1 71
2019-06-09 06:00:00 19 3 Sudeste 13 Este 0 1014.1 -0.6 67
2019-06-09 05:00:00 19.5 6 Nordeste 39 Nordeste 0 1014 -1.6 63
2019-06-09 04:00:00 19.8 28 Este 42 Este 0 1013.7 -2.8 60
2019-06-09 03:00:00 19.9 19 Nordeste 37 Nordeste 0 1014.7 -2.6 57
2019-06-09 02:00:00 19.9 26 Nordeste 45 Nordeste 0 1015.6 -2.8 55
2019-06-09 01:00:00 19.8 19 Este 32 Nordeste 0 1016.5 -1.9 49
2019-06-09 00:00:00 19.9 19 Este 26 Este 0 1017.3 -0.6 49
2019-06-08 23:00:00 19.6 11 Este 32 Este 0 1018.4 0.2 56
2019-06-08 22:00:00 20.3 21 Este 35 Nordeste 0 1018.4 0.3 53
2019-06-08 21:00:00 21.6 24 Nordeste 33 Nordeste 0 1017.9 -0.6 48
2019-06-08 20:00:00 23.3 26 Nordeste 45 Nordeste 0 1018.2 -1 40
2019-06-08 19:00:00 24.3 29 Nordeste 41 Este 0 1018.1 -1.7 37
2019-06-08 18:00:00 24.7 33 Nordeste 45 Nordeste 0 1018.5 -1.8 35
2019-06-08 17:00:00 25.3 33 Este 48 Nordeste 0 1019.2 -1.7 32
2019-06-08 16:00:00 25.2 35 Nordeste 52 Nordeste 0 1019.8 -1.3 34
2019-06-08 15:00:00 24.6 33 Nordeste 59 Nordeste 0 1020.3 -0.4 39
2019-06-08 14:00:00 24.4 39 Nordeste 55 Nordeste 0 1020.9 0.7 41
2019-06-08 13:00:00 24.3 37 Nordeste 59 Este 0 1021.1 0.7 41
2019-06-08 12:00:00 23.6 46 Nordeste 65 Nordeste 0 1020.7 -0.2 42
2019-06-08 11:00:00 22.9 49 Nordeste 65 Nordeste 0 1020.2 0 43
2019-06-08 10:00:00 21.9 43 Nordeste 61 Este 0 1020.4 0.7 48
2019-06-08 09:00:00 20.6 40 Nordeste 63 Nordeste 0 1020.9 1.9 51
2019-06-08 08:00:00 19.9 35 Este 48 Nordeste 0 1020.2 1.5 56
2019-06-08 07:00:00 19.3 31 Este 48 Nordeste 0 1019.7 0.3 58
2019-06-08 06:00:00 19 33 Este 46 Este 0 1019 -0.5 62
2019-06-08 05:00:00 19.1 32 Nordeste 46 Nordeste 0 1018.7 -0.9 77
2019-06-08 04:00:00 19.4 24 Nordeste 39 Nordeste 0 1019.4 0.9 69
2019-06-08 03:00:00 18.3 17 Este 28 Este 0 1019.5 0.9 84
2019-06-08 02:00:00 17.3 12 Nordeste 17 Nordeste 0 1019.6 1.3 72
2019-06-08 01:00:00 17.9 6 Noroeste 9 Noroeste 0 1018.5 1.5 70
2019-06-08 00:00:00 19.6 5 Norte 11 Nordeste 0 1018.6 2.6 66
2019-06-07 23:00:00 20.5 5 Este 18 Sur 0 1018.3 3 68
2019-06-07 22:00:00 22.1 13 Sudeste 18 Sudeste 0 1017 2.4 61
2019-06-07 21:00:00 23.2 12 Sudoeste 22 Sudoeste 0 1016 1.7 61
2019-06-07 20:00:00 24.6 15 Sur 26 Sur 0 1015.3 1.3 54
2019-06-07 19:00:00 25.4 18 Sur 30 Sudoeste 0 1014.6 0.8 53
2019-06-07 18:00:00 26.2 21 Sur 39 Sudoeste 0 1014.3 1 49
2019-06-07 17:00:00 26.3 32 Sudoeste 46 Sudoeste 0 1014 0.7 43
2019-06-07 16:00:00 25.4 36 Sudoeste 45 Sudoeste 0 1013.8 0.7 52
2019-06-07 15:00:00 25.8 36 Sudoeste 46 Sudoeste 0 1013.3 0.4 48
2019-06-07 14:00:00 26.3 39 Sudoeste 50 Sudoeste 0 1013.3 0.6 44
2019-06-07 13:00:00 26 38 Sudoeste 46 Sudoeste 0 1013.1 0.7 48
2019-06-07 12:00:00 24.3 29 Sudoeste 39 Sudoeste 0 1012.9 1.3 63
2019-06-07 11:00:00 23.4 24 Sudoeste 32 Sudoeste 0 1012.7 0.8 69
2019-06-07 10:00:00 22.5 17 Sudoeste 24 Sudoeste 0 1012.4 1.5 65
2019-06-07 09:00:00 20.2 5 Sur 9 Sudeste 0 1011.6 0.5 68
2019-06-07 08:00:00 16.4 3 Nordeste 9 Norte 0 1011.9 1.3 89
2019-06-07 07:00:00 16.5 6 Este 11 Este 0 1010.9 -0.4 76
2019-06-07 06:00:00 16.2 0 Calma 8 Sudeste 0 1011.1 -0.6 85
2019-06-07 05:00:00 15.6 6 Nordeste 9 Nordeste 0 1010.6 -1.3 89
2019-06-07 04:00:00 16.1 6 Este 9 Este 0 1011.3 -1.2 88
2019-06-07 03:00:00 16.5 6 Nordeste 9 Nordeste 0 1011.7 -0.9 89
2019-06-07 02:00:00 17.3 4 Este 8 Este 0 1011.9 -1 87
2019-06-07 01:00:00 18 4 Este 9 Nordeste 0 1012.5 -0.2 82
2019-06-07 00:00:00 18.9 8 Nordeste 15 Nordeste 0 1012.6 0.1 80
2019-06-06 23:00:00 20.3 10 Este 22 Sudeste 0 1012.9 0.4 75
2019-06-06 22:00:00 21.1 14 Sudeste 26 Sudeste 0 1012.7 0.4 71
2019-06-06 21:00:00 22.6 15 Sudeste 30 Sudeste 0 1012.5 -0.1 64
2019-06-06 20:00:00 24.4 17 Sudeste 32 Sudeste 0 1012.5 -0.5 53
2019-06-06 19:00:00 25.8 22 Sudeste 35 Sudeste 0 1012.3 -1.1 45
2019-06-06 18:00:00 26.7 21 Sudeste 35 Sur 0 1012.6 -1.2 40
2019-06-06 17:00:00 28.1 19 Sur 35 Sur 0 1013 -0.9 32
2019-06-06 16:00:00 28.1 19 Sur 35 Sudoeste 0 1013.4 -1 31
2019-06-06 15:00:00 28.1 25 Sudoeste 39 Sudoeste 0 1013.8 -0.8 35
2019-06-06 14:00:00 28.3 19 Sur 30 Sur 0 1013.9 -0.7 33
2019-06-06 13:00:00 25.7 16 Sudoeste 26 Sudoeste 0 1014.4 -0.3 47
2019-06-06 12:00:00 24.4 18 Sudoeste 28 Sudoeste 0 1014.6 0 52
2019-06-06 11:00:00 23.9 8 Este 21 Este 0 1014.6 0 47
2019-06-06 10:00:00 22 13 Este 22 Este 0 1014.7 0.6 55
2019-06-06 09:00:00 19.9 16 Este 24 Este 0 1014.6 0.9 65
2019-06-06 08:00:00 18.4 15 Este 22 Nordeste 0 1014.6 1.1 74
2019-06-06 07:00:00 17.1 12 Nordeste 24 Nordeste 0 1014.1 1.1 80
2019-06-06 06:00:00 16.8 13 Nordeste 21 Este 0 1013.7 0.7 81
2019-06-06 05:00:00 17.4 13 Nordeste 22 Nordeste 0 1013.5 0.9 77
2019-06-06 04:00:00 16.9 4 Este 11 Nordeste 0 1013 0.2 57
2019-06-06 03:00:00 16.4 0 Calma 4 Este 0 1013 0.3 64
2019-06-06 02:00:00 16.6 0 Calma 8 Sudeste 0 1012.6 0.6 63
2019-06-06 01:00:00 17.7 0 Calma 5 Noroeste 0 1012.8 1.6 55
2019-06-06 00:00:00 18.8 5 Noroeste 9 Oeste 0 1012.7 2.3 47
2019-06-05 23:00:00 19.7 5 Oeste 15 Noroeste 0 1012 2.6 48
2019-06-05 22:00:00 20.6 7 Oeste 24 Noroeste 0 1011.2 2.5 49
2019-06-05 21:00:00 21.7 16 Noroeste 30 Noroeste 0 1010.4 2.2 56
2019-06-05 20:00:00 24.5 14 Noroeste 32 Oeste 0 1009.4 1.5 47
2019-06-05 19:00:00 24.9 21 Oeste 42 Sudoeste 0 1008.7 1.3 34
2019-06-05 18:00:00 25.9 33 Sudoeste 50 Sudoeste 0 1008.2 1.1 35
2019-06-05 17:00:00 26.6 36 Oeste 52 Sudoeste 0 1007.9 0.9 34
2019-06-05 16:00:00 27.1 37 Sudoeste 48 Sudoeste 0 1007.4 0 39
2019-06-05 15:00:00 25.4 28 Sudoeste 45 Sudoeste 0 1007.1 -0.1 62
2019-06-05 14:00:00 24.9 36 Sudoeste 46 Sudoeste 0 1007 -0.3 65
2019-06-05 13:00:00 24.3 29 Sudoeste 39 Sudoeste 0 1007.4 0.2 65
2019-06-05 12:00:00 23.5 24 Sudoeste 32 Sudoeste 0 1007.2 0.7 70
2019-06-05 11:00:00 23.8 23 Sudoeste 33 Sur 0 1007.3 0.2 67
2019-06-05 10:00:00 22.4 23 Sudoeste 32 Sudoeste 0 1007.2 0.2 71
2019-06-05 09:00:00 20.4 6 Nordeste 9 Nordeste 0 1006.5 -0.4 82
2019-06-05 08:00:00 16.5 6 Norte 11 Norte 0 1007.1 -0.2 90
2019-06-05 07:00:00 14.8 4 Oeste 5 Oeste 0 1007 -0.7 100
2019-06-05 06:00:00 14.2 0 Calma 13 Nordeste 0 1006.9 -1.6 97
2019-06-05 05:00:00 13.4 -- -- -- -- 0 1007.3 -1.8 94
2019-06-05 04:00:00 13.8 0 Calma 9 Este 0 1007.7 -1.9 91
2019-06-05 03:00:00 14.7 2 Este 5 Este 0 1008.5 -1.2 85
2019-06-05 02:00:00 15.4 2 Norte 8 Norte 0 1009.1 -0.7 87
2019-06-05 01:00:00 16.3 0 Calma 9 Sudeste 0 1009.6 0.3 84
2019-06-05 00:00:00 17.6 4 Sudeste 11 Sudeste 0 1009.7 0.3 80
2019-06-04 23:00:00 19.6 3 Norte 9 Noroeste 0 1009.8 0.2 79
2019-06-04 22:00:00 20.5 7 Noroeste 13 Noroeste 0 1009.3 -0.7 78
2019-06-04 21:00:00 22.5 10 Oeste 22 Oeste 0 1009.4 -0.7 69
2019-06-04 20:00:00 25 16 Oeste 30 Sudoeste 0 1009.6 -0.9 57
2019-06-04 19:00:00 25.9 25 Sudoeste 35 Sudoeste 0 1010 -0.9 49
2019-06-04 18:00:00 28.6 21 Sur 33 Sudoeste 0 1010.1 -1.6 34
2019-06-04 17:00:00 28.3 28 Sudoeste 37 Sudoeste 0 1010.5 -1.8 36
2019-06-04 16:00:00 30.9 19 Sudoeste 32 Sudoeste 0 1010.9 -2.2 28
2019-06-04 15:00:00 29.4 25 Sudoeste 33 Sudoeste 0 1011.7 -1.9 31
2019-06-04 14:00:00 30.3 16 Sur 35 Sur 0 1012.3 -1.3 23
2019-06-04 13:00:00 29.5 17 Sur 35 Sudoeste 0 1013.1 -0.5 24
2019-06-04 12:00:00 26.8 15 Sudoeste 28 Sudoeste 0 1013.6 0.2 39
2019-06-04 11:00:00 26.4 12 Sudoeste 22 Oeste 0 1013.6 0.1 35
2019-06-04 10:00:00 26.1 2 Sudeste 13 Sudeste 0 1013.6 0.1 34
2019-06-04 09:00:00 22 0 Calma 2 Nordeste 0 1013.4 -0.1 43
2019-06-04 08:00:00 17.5 0 Calma 2 Norte 0 1013.5 -0.4 54
2019-06-04 07:00:00 12.8 0 Calma 8 Nordeste 0 1013.5 -0.9 73
2019-06-04 06:00:00 12.1 0 Calma 5 Nordeste 0 1013.5 -1.5 80
2019-06-04 05:00:00 12.5 4 Este 5 Nordeste 0 1013.9 -1.7 83
2019-06-04 04:00:00 12.8 0 Calma 5 Nordeste 0 1014.4 -1.5 86
2019-06-04 03:00:00 13.7 0 Calma 5 Este 0 1015 -1.3 85
2019-06-04 02:00:00 14.2 4 Este 5 Este 0 1015.6 -0.9 84
2019-06-04 01:00:00 15.1 0 Calma 5 Nordeste 0 1015.9 -0.4 85
2019-06-04 00:00:00 16.4 5 Nordeste 8 Nordeste 0 1016.3 0 82
2019-06-03 23:00:00 17.9 0 Calma 8 Sudeste 0 1016.5 0.3 79
2019-06-03 22:00:00 20 3 Sudeste 15 Sudoeste 0 1016.3 -0.1 69
2019-06-03 21:00:00 21.3 13 Oeste 21 Sudoeste 0 1016.3 -0.4 67
2019-06-03 20:00:00 23 13 Oeste 22 Sudoeste 0 1016.2 -0.5 60
2019-06-03 19:00:00 24 19 Sudoeste 30 Sudoeste 0 1016.4 -0.8 56
2019-06-03 18:00:00 24.5 21 Sudoeste 30 Sudoeste 0 1016.7 -0.8 50
2019-06-03 17:00:00 24.5 23 Sudoeste 37 Sudoeste 0 1016.7 -1.1 56
2019-06-03 16:00:00 26.2 30 Sudoeste 41 Sudoeste 0 1017.2 -1 38
2019-06-03 15:00:00 26.9 32 Sudoeste 42 Sudoeste 0 1017.5 -0.8 31
2019-06-03 14:00:00 25.7 29 Sudoeste 35 Sudoeste 0 1017.8 -0.5 43
2019-06-03 13:00:00 26.2 19 Sudoeste 28 Sudoeste 0 1018.2 -0.1 32
2019-06-03 12:00:00 25.2 15 Sudoeste 22 Sudoeste 0 1018.3 0.1 40
2019-06-03 11:00:00 26 15 Sudoeste 22 Sudoeste 0 1018.3 0 29
2019-06-03 10:00:00 25 0 Calma 8 Sudoeste 0 1018.3 0 28
2019-06-03 09:00:00 21.7 0 Calma 2 Norte 0 1018.2 0.3 44
2019-06-03 08:00:00 16.8 0 Calma 2 Este 0 1018.3 0.2 61
2019-06-03 07:00:00 12.1 0 Calma 2 Norte 0 1018.3 0 77
2019-06-03 06:00:00 11 0 Calma 4 Nordeste 0 1017.9 -0.6 83
2019-06-03 05:00:00 11.8 0 Calma 4 Este 0 1018.1 -0.8 82
2019-06-03 04:00:00 12.3 0 Calma 8 Nordeste 0 1018.3 -0.9 81
2019-06-03 03:00:00 12.8 0 Calma 8 Este 0 1018.5 -0.9 81
2019-06-03 02:00:00 13.8 5 Norte 8 Nordeste 0 1018.9 -0.4 83
2019-06-03 01:00:00 15.2 4 Este 5 Nordeste 0 1019.2 0.3 81
2019-06-03 00:00:00 16.1 2 Nordeste -- -- 0 1019.4 0.9 82
2019-06-02 23:00:00 18.2 5 Norte 8 Norte 0 1019.3 1 78
2019-06-02 22:00:00 19.5 7 Oeste 13 Sudoeste 0 1018.9 0.7 72
2019-06-02 21:00:00 21.2 11 Oeste 22 Sudoeste 0 1018.5 0.1 65
2019-06-02 20:00:00 22.7 18 Sudoeste 28 Sudoeste 0 1018.3 -0.2 57
2019-06-02 19:00:00 23.2 26 Sudoeste 32 Sudoeste 0 1018.2 -0.6 54
2019-06-02 18:00:00 24.4 24 Sudoeste 35 Sudoeste 0 1018.4 -0.8 48
2019-06-02 17:00:00 24.4 26 Sudoeste 32 Sudoeste 0 1018.5 -1.3 49
2019-06-02 16:00:00 24.8 26 Sudoeste 35 Sudoeste 0 1018.8 -1.4 48
2019-06-02 15:00:00 24.5 27 Sudoeste 33 Sudoeste 0 1019.2 -1.1 56
2019-06-02 14:00:00 24.5 25 Sudoeste 32 Sudoeste 0 1019.8 -0.3 52
2019-06-02 13:00:00 25 20 Sudoeste 28 Sudoeste 0 1020.2 0.1 44
2019-06-02 12:00:00 24 20 Sudoeste 26 Sudoeste 0 1020.3 0.1 50
2019-06-02 11:00:00 24 17 Sudoeste 24 Sudoeste 0 1020.1 -0.2 45
2019-06-02 10:00:00 24.1 0 Calma 4 Sudoeste 0 1020.1 0.1 38
2019-06-02 09:00:00 20.9 0 Calma -- -- 0 1020.2 0.5 53
2019-06-02 08:00:00 16 0 Calma 2 Norte 0 1020.3 0.6 68
2019-06-02 07:00:00 11.8 2 Nordeste 8 Nordeste 0 1020 0 87
2019-06-02 06:00:00 11.3 0 Calma 4 Este 0 1019.7 -0.4 92
2019-06-02 05:00:00 11.7 4 Nordeste 11 Este 0 1019.7 -0.9 90
2019-06-02 04:00:00 13.1 0 Calma 4 Nordeste 0 1020 -1 89
2019-06-02 03:00:00 12.9 4 Nordeste 5 Nordeste 0 1020.1 -1.1 87
2019-06-02 02:00:00 14.1 0 Calma 5 Nordeste 0 1020.6 -0.7 86
2019-06-02 01:00:00 15.1 2 Nordeste 5 Nordeste 0 1021 0.3 83
2019-06-02 00:00:00 16.1 3 Nordeste 5 Nordeste 0 1021.2 0.7 80
2019-06-01 23:00:00 17.5 2 Nordeste 13 Sur 0 1021.3 1 78
2019-06-01 22:00:00 19.6 8 Oeste 17 Sudoeste 0 1020.7 0.4 77
2019-06-01 21:00:00 21.6 13 Sudoeste 24 Sudoeste 0 1020.5 0 61
2019-06-01 20:00:00 22.8 16 Sudoeste 24 Sur 0 1020.3 -0.5 52
2019-06-01 19:00:00 23.4 16 Sur 30 Sudoeste 0 1020.3 -0.8 50
2019-06-01 18:00:00 24 22 Sur 35 Sur 0 1020.5 -1 51
2019-06-01 17:00:00 24.5 23 Sudoeste 35 Sur 0 1020.8 -1.3 48
2019-06-01 16:00:00 24.8 24 Sudoeste 33 Sudoeste 0 1021.1 -1.2 43
2019-06-01 15:00:00 25.2 23 Sudoeste 32 Sur 0 1021.5 -0.9 41
2019-06-01 14:00:00 24.8 22 Sudoeste 35 Sudoeste 0 1022.1 -0.3 43
2019-06-01 13:00:00 24.7 22 Sudoeste 30 Sudoeste 0 1022.3 0 39
2019-06-01 12:00:00 24.7 21 Sudoeste 30 Sudoeste 0 1022.4 -0.1 43
2019-06-01 11:00:00 24.4 15 Sudoeste 24 Sudoeste 0 1022.4 0 42
2019-06-01 10:00:00 23.9 3 Este 15 Este 0 1022.3 0.2 41
2019-06-01 09:00:00 21.1 4 Este 11 Nordeste 0 1022.5 0.6 54
2019-06-01 08:00:00 17.1 0 Calma 8 Norte 0 1022.4 0.5 67
2019-06-01 07:00:00 12.4 3 Norte 5 Norte 0 1022.1 0.2 85
2019-06-01 06:00:00 12 0 Calma 5 Este 0 1021.9 -0.1 88
2019-06-01 05:00:00 12.3 0 Calma 5 Nordeste 0 1021.9 -0.6 88
2019-06-01 04:00:00 12.9 0 Calma 4 Este 0 1021.9 -0.9 85
2019-06-01 03:00:00 13.7 0 Calma 5 Este 0 1022 -1.2 83
2019-06-01 02:00:00 14.6 4 Nordeste 8 Nordeste 0 1022.5 -0.5 80
2019-06-01 01:00:00 14.9 5 Norte 9 Nordeste 0 1022.8 0 77
2019-06-01 00:00:00 16 0 Calma 5 Nordeste 0 1023.2 0.7 75
2019-05-31 23:00:00 18 0 Calma 13 Sur 0 1023 0.6 70
2019-05-31 22:00:00 20.2 8 Sur 21 Sur 0 1022.8 0.3 65
2019-05-31 21:00:00 21.2 11 Sur 24 Sudoeste 0 1022.5 -0.2 55
2019-05-31 20:00:00 22.2 18 Sudoeste 30 Sudoeste 0 1022.4 -0.7 54
2019-05-31 19:00:00 23.1 21 Sudoeste 30 Sudoeste 0 1022.5 -1.1 49
2019-05-31 18:00:00 23.9 21 Sudoeste 28 Sudoeste 0 1022.7 -1 42
2019-05-31 17:00:00 24.4 21 Sudoeste 32 Sudoeste 0 1023.1 -0.8 38
2019-05-31 16:00:00 24.9 23 Sudoeste 32 Sudoeste 0 1023.6 -0.5 35
2019-05-31 15:00:00 24.7 23 Sudoeste 33 Sudoeste 0 1023.7 -0.4 35
2019-05-31 14:00:00 24.5 27 Sudoeste 35 Sudoeste 0 1023.9 -0.2 37
2019-05-31 13:00:00 24.1 24 Sudoeste 35 Sudoeste 0 1024.1 -0.1 43
2019-05-31 12:00:00 23.7 21 Sudoeste 28 Sudoeste 0 1024.1 -0.1 42
2019-05-31 11:00:00 23.7 19 Sudoeste 28 Sur 0 1024.1 0.1 43
2019-05-31 10:00:00 23.7 0 Calma 8 Sudoeste 0 1024.2 0.5 35
2019-05-31 09:00:00 21 0 Calma 5 Nordeste 0 1024.2 0.6 44
2019-05-31 08:00:00 16.1 0 Calma 9 Este 0 1024 0.5 69
2019-05-31 07:00:00 11.9 0 Calma 8 Nordeste 0 1023.7 0.1 82
2019-05-31 06:00:00 11.3 0 Calma 5 Nordeste 0 1023.6 -0.5 87
2019-05-31 05:00:00 11.7 4 Nordeste 9 Este 0 1023.5 -1.1 85
2019-05-31 04:00:00 12.7 0 Calma 8 Este 0 1023.6 -1.4 84
2019-05-31 03:00:00 13.3 0 Calma 8 Nordeste 0 1024.1 -1.1 83
2019-05-31 02:00:00 14 8 Nordeste 9 Nordeste 0 1024.6 -0.4 79
2019-05-31 01:00:00 15 5 Nordeste 9 Norte 0 1025 0.8 74
2019-05-31 00:00:00 16.2 6 Norte 13 Oeste 0 1025.2 1.3 70
2019-05-30 23:00:00 19.3 12 Sudoeste 22 Sudoeste 0 1025 1.6 59
2019-05-30 22:00:00 19.7 19 Sudoeste 30 Sudoeste 0 1024.2 1.2 60
2019-05-30 21:00:00 20.6 20 Sudoeste 28 Sudoeste 0 1023.9 0.7 55
2019-05-30 20:00:00 21.9 22 Oeste 35 Sudoeste 0 1023.4 0 45
2019-05-30 19:00:00 22.9 30 Sudoeste 42 Sudoeste 0 1023 -0.9 40
2019-05-30 18:00:00 23.5 32 Sudoeste 45 Sudoeste 0 1023.2 -0.9 36
2019-05-30 17:00:00 24.3 32 Sudoeste 45 Sudoeste 0 1023.4 -1.1 32
2019-05-30 16:00:00 24.5 32 Sudoeste 41 Sudoeste 0 1023.9 -0.8 31
2019-05-30 15:00:00 24.4 30 Sudoeste 41 Sudoeste 0 1024.1 -0.7 32
2019-05-30 14:00:00 24.3 30 Sudoeste 39 Sudoeste 0 1024.5 -0.1 34
2019-05-30 13:00:00 24 26 Sudoeste 35 Sudoeste 0 1024.7 -0.1 35
2019-05-30 12:00:00 23.3 21 Sudoeste 30 Sudoeste 0 1024.8 0.2 38
2019-05-30 11:00:00 22.5 17 Sudoeste 26 Sudoeste 0 1024.6 0.4 48
2019-05-30 10:00:00 21.1 6 Sur 15 Sur 0 1024.8 0.7 56
2019-05-30 09:00:00 19.2 0 Calma 5 Sudoeste 0 1024.6 0.9 63
2019-05-30 08:00:00 14.3 0 Calma 5 Este 0 1024.2 0.6 75
2019-05-30 07:00:00 10.6 0 Calma 5 Este 0 1024.1 0.4 90
2019-05-30 06:00:00 10.2 5 Este 5 Este 0 1023.7 -0.1 89
2019-05-30 05:00:00 10.6 2 Este 5 Este 0 1023.6 -0.6 88
2019-05-30 04:00:00 11.2 0 Calma 4 Nordeste 0 1023.7 -0.5 86
2019-05-30 03:00:00 11.9 0 Calma 5 Nordeste 0 1023.8 -0.1 83
2019-05-30 02:00:00 13.5 0 Calma 9 Noroeste 0 1024.2 0.8 82
2019-05-30 01:00:00 12.8 2 Norte 9 Este 0 1024.2 1.8 82
2019-05-30 00:00:00 14.3 4 Este 8 Este 0 1023.9 2 78
2019-05-29 23:00:00 16.2 2 Noroeste 11 Sudoeste 0 1023.4 2.2 70
2019-05-29 22:00:00 17.6 10 Oeste 22 Sudoeste 0 1022.4 1.7 65
2019-05-29 21:00:00 18 15 Sudoeste 26 Sudoeste 0 1021.9 1.1 67
2019-05-29 20:00:00 19.6 20 Sudoeste 33 Sudoeste 0 1021.2 0.4 60
2019-05-29 19:00:00 20 27 Sudoeste 35 Sudoeste 0 1020.7 0.2 61
2019-05-29 18:00:00 20.5 23 Sudoeste 37 Sudoeste 0 1020.8 0.6 59
2019-05-29 17:00:00 21.1 26 Sudoeste 35 Sur 0 1020.8 0.5 54
2019-05-29 16:00:00 21.5 26 Sudoeste 35 Sudoeste 0 1020.5 0.2 53
2019-05-29 15:00:00 21.3 26 Sudoeste 37 Sudoeste 0 1020.2 0.3 54
2019-05-29 14:00:00 21.5 27 Sudoeste 37 Sudoeste 0 1020.3 0.5 54
2019-05-29 13:00:00 21.5 24 Sudoeste 30 Sudoeste 0 1020.3 0.6 51
2019-05-29 12:00:00 21.9 19 Sur 30 Sudoeste 0 1019.9 0.5 49
2019-05-29 11:00:00 20.5 13 Sudoeste 21 Sudoeste 0 1019.8 0.9 50
2019-05-29 10:00:00 19.5 10 Este 24 Nordeste 0 1019.7 1.5 58
2019-05-29 09:00:00 17.3 17 Este 24 Este 0 1019.4 1.6 75
2019-05-29 08:00:00 14.2 6 Este 18 Nordeste 0 1018.9 1.3 76
2019-05-29 07:00:00 12.9 4 Este 9 Noroeste 0 1018.2 0.7 77
2019-05-29 06:00:00 14.5 9 Noroeste 13 Noroeste 0 1017.8 0.3 69
2019-05-29 05:00:00 14.8 3 Nordeste 8 Este 0 1017.6 0 80
2019-05-29 04:00:00 14.2 3 Norte 8 Nordeste 0 1017.5 0.2 82
2019-05-29 03:00:00 14 0 Calma 8 Este 0 1017.5 0.5 83
2019-05-29 02:00:00 14.5 3 Nordeste 9 Norte 0 1017.6 1 78
2019-05-29 01:00:00 14.9 0 Calma 8 Nordeste 0 1017.3 1.5 79
2019-05-29 00:00:00 16.2 5 Nordeste 11 Norte 0 1017 2.2 75
2019-05-28 23:00:00 17 9 Nordeste 24 Nordeste 0 1016.6 3 73
2019-05-28 22:00:00 18.1 15 Nordeste 35 Nordeste 0 1015.8 3 69
2019-05-28 21:00:00 18.5 28 Nordeste 48 Este 0 1014.8 2.9 68
2019-05-28 20:00:00 19.9 32 Nordeste 46 Nordeste 0 1013.6 1.8 63
2019-05-28 19:00:00 21.8 32 Nordeste 45 Este 0 1012.8 0.5 57
2019-05-28 18:00:00 23.8 28 Este 35 Nordeste 0 1011.9 -0.6 52
2019-05-28 17:00:00 26.8 16 Noroeste 39 Oeste 0 1011.8 -1 28
2019-05-28 16:00:00 25.5 19 Sudoeste 33 Sudoeste 0 1012.3 -0.7 36
2019-05-28 15:00:00 25.2 27 Sudoeste 35 Sudoeste 0 1012.5 -0.4 37
2019-05-28 14:00:00 23.9 20 Sudoeste 28 Sudoeste 0 1012.8 0 41
2019-05-28 13:00:00 23.6 19 Sudoeste 28 Sudoeste 0 1013 0.1 51
2019-05-28 12:00:00 22.9 13 Sudoeste 22 Sudoeste 0 1012.9 0.4 61
2019-05-28 11:00:00 21.7 9 Sudoeste 17 Sudoeste 0 1012.8 0.3 67
2019-05-28 10:00:00 20.6 12 Sudoeste 21 Sur 0 1012.9 1 76
2019-05-28 09:00:00 19 0 Calma 8 Norte 0 1012.5 0.9 82
2019-05-28 08:00:00 17.3 3 Norte 5 Norte 0 1012.5 0.9 83
2019-05-28 07:00:00 16.2 0 Calma 9 Noroeste 0 1011.9 0.1 84
2019-05-28 06:00:00 15.6 3 Noroeste 5 Noroeste 0 1011.6 -0.6 92
2019-05-28 05:00:00 14.9 0 Calma 8 Nordeste 0 1011.6 -1.1 91
2019-05-28 04:00:00 15 3 Nordeste 5 Nordeste 0 1011.8 -0.9 87
2019-05-28 03:00:00 14.9 0 Calma 2 Nordeste 0 1012.2 -0.2 87
2019-05-28 02:00:00 15.5 0 Calma 5 Norte 0 1012.7 0.6 84
2019-05-28 01:00:00 15.8 0 Calma 5 Nordeste 0 1012.7 1.1 84
2019-05-28 00:00:00 16.3 0 Calma 9 Este 0 1012.4 1.1 78
2019-05-27 23:00:00 17 3 Este 9 Sudoeste 0 1012.1 1 80
2019-05-27 22:00:00 18.8 7 Sur 15 Sudoeste 0 1011.6 0.7 76
2019-05-27 21:00:00 20.3 9 Sur 22 Sudoeste 0 1011.3 0.4 67
2019-05-27 20:00:00 21.4 17 Sudoeste 35 Sudoeste 0 1011.1 0.4 64
2019-05-27 19:00:00 21.9 25 Sudoeste 35 Sudoeste 0 1010.9 0.1 62
2019-05-27 18:00:00 23.4 27 Sudoeste 45 Sudoeste 0 1010.9 -0.4 50
2019-05-27 17:00:00 23.3 38 Sudoeste 46 Sudoeste 0 1010.7 -0.8 52
2019-05-27 16:00:00 24.4 36 Sudoeste 46 Sudoeste 0 1010.8 -1 50
2019-05-27 15:00:00 24.3 23 Sur 35 Sudoeste 0 1011.3 -0.6 54
2019-05-27 14:00:00 25.6 24 Sur 30 Sur 0 1011.5 -0.4 43
2019-05-27 13:00:00 25.6 16 Sudoeste 28 Sudoeste 0 1011.8 -0.2 38
2019-05-27 12:00:00 24.8 14 Sudoeste 21 Sudoeste 0 1011.9 0 42
2019-05-27 11:00:00 22.8 9 Sudoeste 18 Sudoeste 0 1011.9 -0.2 48
2019-05-27 10:00:00 23.4 13 Oeste 24 Oeste 0 1012 0.1 42
2019-05-27 09:00:00 21.5 6 Noroeste 13 Noroeste 0 1011.9 -0.1 48
2019-05-27 08:00:00 15.9 4 Nordeste 8 Nordeste 0 1012.1 0.1 70
2019-05-27 07:00:00 16.4 7 Noroeste 15 Oeste 0 1011.9 -0.7 65
2019-05-27 06:00:00 15.4 2 Oeste 13 Noroeste 0 1012 -0.9 69
2019-05-27 05:00:00 15.9 5 Oeste 13 Oeste 0 1012 -1.3 66
2019-05-27 04:00:00 11 0 Calma 9 Oeste 0 1012.6 -1.2 88
2019-05-27 03:00:00 11.8 0 Calma 9 Nordeste 0 1012.9 -1.3 85
2019-05-27 02:00:00 12 0 Calma 8 Norte 0 1013.3 -1.2 84
2019-05-27 01:00:00 13.2 5 Este 8 Este 0 1013.8 -0.3 80
2019-05-27 00:00:00 14.6 0 Calma 15 Este 0 1014.2 0.4 76
2019-05-26 23:00:00 16 0 Calma 11 Este 0 1014.5 1 77
2019-05-26 22:00:00 17.6 6 Oeste 13 Sur 0 1014.1 0.4 67
2019-05-26 21:00:00 20.4 12 Sur 18 Sur 0 1013.8 -0.1 52
2019-05-26 20:00:00 21.4 8 Sur 15 Sur 0 1013.5 -0.6 53
2019-05-26 19:00:00 21.8 9 Sudoeste 28 Sur 0 1013.7 -0.7 47
2019-05-26 18:00:00 22 15 Sudoeste 32 Norte 0 1013.9 -0.5 51
2019-05-26 17:00:00 23.2 12 Oeste 18 Oeste 0 1014.1 -0.6 42
2019-05-26 16:00:00 20.9 10 Noroeste 28 Norte 0 1014.4 -0.4 57
2019-05-26 15:00:00 21.9 19 Noroeste 30 Noroeste 0 1014.4 -0.6 51
2019-05-26 14:00:00 22.8 16 Noroeste 28 Noroeste 0 1014.7 -0.2 51
2019-05-26 13:00:00 23 13 Oeste 24 Oeste 0 1014.8 -0.1 50
2019-05-26 12:00:00 24.6 13 Nordeste 37 Norte 0 1015 0 33
2019-05-26 11:00:00 21.9 17 Noroeste 32 Noroeste 0 1014.9 0 55
2019-05-26 10:00:00 19.7 21 Noroeste 35 Noroeste 0 1014.9 0.2 66
2019-05-26 09:00:00 18.2 15 Noroeste 33 Norte 0 1015 0.4 69
2019-05-26 08:00:00 18.9 16 Noroeste 26 Noroeste 0 1014.9 0.1 67
2019-05-26 07:00:00 17.8 8 Noroeste 24 Noroeste 0 1014.7 -0.3 72
2019-05-26 06:00:00 17.1 9 Noroeste 22 Oeste 0 1014.6 -0.7 74
2019-05-26 05:00:00 17.3 13 Noroeste 26 Noroeste 0 1014.8 -0.8 70
2019-05-26 04:00:00 16.7 16 Noroeste 24 Noroeste 0 1015 -0.9 80
2019-05-26 03:00:00 15.6 0 Calma 8 Noroeste 0 1015.3 -0.8 84
2019-05-26 02:00:00 16 5 Noroeste 11 Nordeste 0 1015.6 -0.8 83
2019-05-26 01:00:00 16.6 0 Calma 8 Este 0 1015.9 0 82
2019-05-26 00:00:00 17.1 0 Calma 4 Norte 0 1016.1 0.8 77
2019-05-25 23:00:00 17.7 0 Calma 4 Oeste 0 1016.4 1.7 73
2019-05-25 22:00:00 18.3 0 Calma 24 Nordeste 0 1015.9 1.5 69
2019-05-25 21:00:00 18.6 13 Nordeste 26 Este 0 1015.3 0.8 67
2019-05-25 20:00:00 19.3 18 Nordeste 30 Nordeste 0 1014.7 0 63
2019-05-25 19:00:00 19.7 22 Nordeste 35 Nordeste 0 1014.4 -0.6 61
2019-05-25 18:00:00 20 20 Nordeste 37 Nordeste 0 1014.5 -0.7 61
2019-05-25 17:00:00 20.5 25 Nordeste 42 Nordeste 0 1014.7 -0.3 58
2019-05-25 16:00:00 19.3 22 Nordeste 39 Nordeste 0 1015 0 66
2019-05-25 15:00:00 19.1 26 Nordeste 35 Nordeste 0 1015.2 0.2 69
2019-05-25 14:00:00 19.5 27 Nordeste 35 Nordeste 0 1015 0.1 66
2019-05-25 13:00:00 20.1 20 Nordeste 37 Nordeste 0 1015 0.5 65
2019-05-25 12:00:00 18.9 14 Nordeste 24 Este 0 1015 0.9 70
2019-05-25 11:00:00 17.8 17 Este 26 Este 0 1014.9 1.3 77
2019-05-25 10:00:00 17.1 17 Nordeste 28 Este 0 1014.5 1.4 81
2019-05-25 09:00:00 16.8 16 Nordeste 24 Nordeste 0 1014.1 1 85
2019-05-25 08:00:00 15.6 13 Nordeste 21 Nordeste 0 1013.6 0.7 91
2019-05-25 07:00:00 15.1 12 Este 15 Este 0 1013.1 -0.1 94
2019-05-25 06:00:00 14.2 3 Nordeste 9 Nordeste 0 1013.1 -0.3 93
2019-05-25 05:00:00 14.1 5 Norte 8 Norte 0 1012.9 -1.1 94
2019-05-25 04:00:00 14.5 0 Calma 5 Norte 0 1013.2 -0.9 91
2019-05-25 03:00:00 14.5 2 Nordeste 8 Norte 0 1013.4 -0.7 88
2019-05-25 02:00:00 14.5 0 Calma 9 Norte 0 1014 0 85
2019-05-25 01:00:00 14.9 7 Norte 9 Norte 0 1014.1 0.2 85
2019-05-25 00:00:00 15.1 3 Nordeste 13 Nordeste 0 1014.1 0.2 83
2019-05-24 23:00:00 15.4 5 Norte 11 Nordeste 0 1014 -0.1 84
2019-05-24 22:00:00 15.3 8 Nordeste 11 Nordeste 0 1013.9 -0.3 82
2019-05-24 21:00:00 15.9 7 Este 13 Nordeste 0 1013.9 -0.7 78
2019-05-24 20:00:00 15.9 8 Este 17 Este 0 1014.1 -0.7 78
2019-05-24 19:00:00 16.1 9 Este 21 Este 0 1014.2 -0.7 80
2019-05-24 18:00:00 16.5 10 Nordeste 13 Nordeste 0.6 1014.6 -0.5 78
2019-05-24 17:00:00 17 8 Norte 17 Noroeste 0.2 1014.8 -0.1 78
2019-05-24 16:00:00 17.3 10 Noroeste 17 Noroeste 0.6 1014.9 0.2 77
2019-05-24 15:00:00 18.1 8 Noroeste 15 Noroeste 0.4 1015.1 0.7 73
2019-05-24 14:00:00 19 8 Norte 13 Norte 0 1014.9 0.1 65
2019-05-24 13:00:00 19.1 8 Norte 13 Norte 0.4 1014.7 0 79
2019-05-24 12:00:00 22.5 5 Norte 11 Norte 0 1014.4 0.4 38
2019-05-24 11:00:00 23.6 6 Oeste 15 Oeste 0 1014.8 0.6 23
2019-05-24 10:00:00 21.1 2 Oeste 8 Oeste 0 1014.7 0.4 35
2019-05-24 09:00:00 19.3 0 Calma 2 Nordeste 0 1014 -0.3 52
2019-05-24 08:00:00 17.6 0 Calma 2 Nordeste 0 1014.2 0.1 56
2019-05-24 07:00:00 16.3 0 Calma 9 Norte 0 1014.3 -0.5 61
2019-05-24 06:00:00 16.2 8 Norte 11 Norte 0 1014.3 -1.1 55
2019-05-24 05:00:00 15.7 0 Calma 9 Este 0 1014.1 -1.6 59
2019-05-24 04:00:00 15 2 Este 5 Este 0 1014.8 -1.3 64
2019-05-24 03:00:00 14.6 0 Calma 2 Nordeste 0 1015.4 -0.8 70
2019-05-24 02:00:00 15.3 0 Calma 2 Nordeste 0 1015.7 -0.6 68
2019-05-24 01:00:00 16 0 Calma 4 Nordeste 0 1016.1 0 62
2019-05-24 00:00:00 16.2 0 Calma 9 Este 0 1016.2 -0.1 66
2019-05-23 23:00:00 17.4 0 Calma 5 Norte 0 1016.3 0.1 65
2019-05-23 22:00:00 18 0 Calma 4 Noroeste 0 1016.1 -0.2 68
2019-05-23 21:00:00 19.6 2 Noroeste 11 Sur 0 1016.3 -0.2 65
2019-05-23 20:00:00 20.9 12 Sudoeste 21 Sudoeste 0 1016.2 -0.4 59
2019-05-23 19:00:00 21.5 15 Sudoeste 24 Sudoeste 0 1016.3 -0.8 55
2019-05-23 18:00:00 22.4 19 Sudoeste 30 Sudoeste 0 1016.5 -0.9 50
2019-05-23 17:00:00 24.2 20 Sudoeste 30 Sudoeste 0 1016.6 -1.2 38
2019-05-23 16:00:00 24.1 18 Sudoeste 28 Sudoeste 0 1017.1 -1 39
2019-05-23 15:00:00 23.9 18 Sudoeste 26 Sudoeste 0 1017.4 -1.2 45
2019-05-23 14:00:00 23.4 17 Sudoeste 24 Sudoeste 0 1017.8 -0.7 51
2019-05-23 13:00:00 23.1 15 Sudoeste 24 Sudoeste 0 1018.1 -0.3 52
2019-05-23 12:00:00 23.1 17 Sudoeste 24 Sudoeste 0 1018.6 0.3 44
2019-05-23 11:00:00 22.5 13 Sudoeste 21 Sudoeste 0 1018.5 0.4 46
2019-05-23 10:00:00 22.1 8 Sudoeste 15 Sudoeste 0 1018.4 0.4 44
2019-05-23 09:00:00 18.9 0 Calma 2 Norte 0 1018.3 0.2 65
2019-05-23 08:00:00 14.2 0 Calma 5 Norte 0 1018.1 0 84
2019-05-23 07:00:00 10.1 0 Calma 5 Nordeste 0 1018 -0.3 93
2019-05-23 06:00:00 9.8 4 Nordeste 9 Norte 0 1018.1 -0.4 90
2019-05-23 05:00:00 10.1 2 Nordeste 5 Nordeste 0 1018.1 -0.5 94
2019-05-23 04:00:00 11.3 5 Nordeste 11 Nordeste 0 1018.3 -0.6 94
2019-05-23 03:00:00 12.3 0 Calma 9 Norte 0 1018.5 -0.5 87
2019-05-23 02:00:00 12.6 0 Calma 4 Nordeste 0 1018.6 -0.5 87
2019-05-23 01:00:00 13.7 0 Calma 8 Norte 0 1018.9 0.5 83
2019-05-23 00:00:00 15.2 0 Calma 11 Sudeste 0 1019 1 77
2019-05-22 23:00:00 17.5 5 Sudeste 17 Sudoeste 0 1019.1 1.7 70
2019-05-22 22:00:00 19.5 13 Sudoeste 22 Sudoeste 0 1018.4 1.2 66
2019-05-22 21:00:00 19.9 14 Sur 26 Sudoeste 0 1018 0.5 59
2019-05-22 20:00:00 20.9 20 Sur 28 Sur 0 1017.4 0 58
2019-05-22 19:00:00 21.9 22 Sur 32 Sur 0 1017.2 -0.5 53
2019-05-22 18:00:00 23 24 Sur 37 Sudoeste 0 1017.5 -0.3 39
2019-05-22 17:00:00 22.7 24 Sur 37 Sudoeste 0 1017.4 -0.6 53
2019-05-22 16:00:00 23.2 30 Sudoeste 37 Sudoeste 0 1017.7 -0.3 46
2019-05-22 15:00:00 23.4 27 Sudoeste 33 Sudoeste 0 1017.8 -0.3 44
2019-05-22 14:00:00 24.1 22 Sudoeste 30 Sudoeste 0 1018 -0.1 35
2019-05-22 13:00:00 23.6 16 Sudoeste 22 Sudoeste 0 1018 -0.1 28
2019-05-22 12:00:00 23.8 13 Sudoeste 21 Sudoeste 0 1018.1 0.2 25
2019-05-22 11:00:00 22.8 3 Sudoeste 13 Sudoeste 0 1018.1 0.4 33
2019-05-22 10:00:00 19.5 0 Calma 5 Oeste 0 1018.1 0.8 59
2019-05-22 09:00:00 16.3 0 Calma 5 Este 0 1017.9 0.9 77
2019-05-22 08:00:00 13.5 0 Calma 8 Norte 0 1017.7 0.5 75
2019-05-22 07:00:00 11.3 9 Norte 11 Norte 0 1017.3 0 80
2019-05-22 06:00:00 9.6 0 Calma 8 Norte 0 1017 -0.2 88
2019-05-22 05:00:00 9.8 0 Calma 5 Norte 0 1017.2 0.1 89
2019-05-22 04:00:00 9.6 0 Calma 4 Norte 0 1017.3 0.2 86
2019-05-22 03:00:00 10.8 0 Calma 2 Norte 0 1017.2 -0.1 90
2019-05-22 02:00:00 12.2 0 Calma 8 Norte 0 1017.1 -0.3 78
2019-05-22 01:00:00 13.6 0 Calma 8 Norte 0 1017.1 0.3 73
2019-05-22 00:00:00 14.5 0 Calma 5 Nordeste 0 1017.3 0.9 85
2019-05-21 23:00:00 16 4 Nordeste 15 Sur 0 1017.4 1.5 80
2019-05-21 22:00:00 18.3 10 Sudoeste 15 Sudoeste 0 1016.8 1.5 74
2019-05-21 21:00:00 19.4 3 Sur 17 Sudoeste 0 1016.4 1 66
2019-05-21 20:00:00 19.4 12 Sudoeste 24 Sur 0 1015.9 0.3 64
2019-05-21 19:00:00 21.2 14 Sudoeste 18 Sudoeste 0 1015.3 -0.6 35
2019-05-21 18:00:00 20.9 4 Oeste 11 Sudoeste 0 1015.4 -0.8 47
2019-05-21 17:00:00 20.5 7 Oeste 18 Sudoeste 0 1015.6 -0.5 56
2019-05-21 16:00:00 20.3 11 Sudoeste 24 Sur 0 1015.9 -0.1 54
2019-05-21 15:00:00 19.6 15 Sur 24 Sur 0 1016.2 0.7 58
2019-05-21 14:00:00 20 11 Sudoeste 33 Sudoeste 0 1016.1 1.1 53
2019-05-21 13:00:00 20.1 30 Sudoeste 37 Sudoeste 0 1016 1 53
2019-05-21 12:00:00 22.6 22 Sudoeste 32 Sudoeste 0 1015.5 0.3 39
2019-05-21 11:00:00 23.6 3 Nordeste 15 Nordeste 0 1015 -0.1 29
2019-05-21 10:00:00 21 3 Nordeste 11 Nordeste 0 1015 0.1 39
2019-05-21 09:00:00 18.1 0 Calma 2 Nordeste 0 1015.2 0.5 56
2019-05-21 08:00:00 14.2 0 Calma 8 Norte 0 1015.1 0.5 71
2019-05-21 07:00:00 11.1 2 Norte 5 Norte 0 1014.9 0.2 72
2019-05-21 06:00:00 11.2 0 Calma 2 Nordeste 0 1014.7 0.2 83
2019-05-21 05:00:00 12.2 0 Calma 13 Norte 0 1014.6 0.2 72
2019-05-21 04:00:00 11.9 8 Noroeste 11 Noroeste 0 1014.7 0.2 69
2019-05-21 03:00:00 12.1 3 Nordeste 13 Nordeste 0 1014.5 0 77
2019-05-21 02:00:00 12.4 0 Calma 8 Nordeste 0 1014.4 0.1 77
2019-05-21 01:00:00 12.5 5 Este 11 Este 0 1014.5 1.2 74
2019-05-21 00:00:00 13.1 4 Este 13 Nordeste 0 1014.5 1.7 76